sensor_id;sensor_type;location;lat;lon;timestamp;temperature;humidity
9446;DHT22;4761;49.490;10.908;2022-07-29T00:00:13;24.20;49.50
9446;DHT22;4761;49.490;10.908;2022-07-29T00:02:39;24.20;49.80
9446;DHT22;4761;49.490;10.908;2022-07-29T00:05:05;24.20;49.80
9446;DHT22;4761;49.490;10.908;2022-07-29T00:07:31;24.20;49.60
9446;DHT22;4761;49.490;10.908;2022-07-29T00:09:56;24.20;49.30
9446;DHT22;4761;49.490;10.908;2022-07-29T00:12:24;24.20;49.80
9446;DHT22;4761;49.490;10.908;2022-07-29T00:14:50;24.20;49.70
9446;DHT22;4761;49.490;10.908;2022-07-29T00:17:15;24.20;49.80
9446;DHT22;4761;49.490;10.908;2022-07-29T00:19:41;24.20;49.60
9446;DHT22;4761;49.490;10.908;2022-07-29T00:22:07;24.20;49.80
9446;DHT22;4761;49.490;10.908;2022-07-29T00:24:32;24.20;49.80
9446;DHT22;4761;49.490;10.908;2022-07-29T00:26:58;24.20;49.70
9446;DHT22;4761;49.490;10.908;2022-07-29T00:29:24;24.20;49.90
9446;DHT22;4761;49.490;10.908;2022-07-29T00:31:49;24.20;49.90
9446;DHT22;4761;49.490;10.908;2022-07-29T00:34:15;24.20;49.70
9446;DHT22;4761;49.490;10.908;2022-07-29T00:36:59;24.20;49.90
9446;DHT22;4761;49.490;10.908;2022-07-29T00:39:25;24.20;50.00
9446;DHT22;4761;49.490;10.908;2022-07-29T00:41:51;24.20;49.80
9446;DHT22;4761;49.490;10.908;2022-07-29T00:44:16;24.20;49.80
9446;DHT22;4761;49.490;10.908;2022-07-29T00:46:42;24.20;49.50
9446;DHT22;4761;49.490;10.908;2022-07-29T00:49:08;24.20;49.80
9446;DHT22;4761;49.490;10.908;2022-07-29T00:51:37;24.20;49.80
9446;DHT22;4761;49.490;10.908;2022-07-29T00:54:03;24.30;49.90
9446;DHT22;4761;49.490;10.908;2022-07-29T00:56:33;24.20;49.90
9446;DHT22;4761;49.490;10.908;2022-07-29T00:58:59;24.30;49.90
9446;DHT22;4761;49.490;10.908;2022-07-29T01:01:25;24.30;50.00
9446;DHT22;4761;49.490;10.908;2022-07-29T01:03:51;24.30;50.10
9446;DHT22;4761;49.490;10.908;2022-07-29T01:06:18;24.20;50.00
9446;DHT22;4761;49.490;10.908;2022-07-29T01:08:47;24.20;50.00
9446;DHT22;4761;49.490;10.908;2022-07-29T01:11:14;24.30;49.90
9446;DHT22;4761;49.490;10.908;2022-07-29T01:13:41;24.20;49.80
9446;DHT22;4761;49.490;10.908;2022-07-29T01:16:24;24.20;50.00
9446;DHT22;4761;49.490;10.908;2022-07-29T01:18:54;24.20;50.00
9446;DHT22;4761;49.490;10.908;2022-07-29T01:24:33;24.20;50.00
9446;DHT22;4761;49.490;10.908;2022-07-29T01:29:41;24.10;50.00
9446;DHT22;4761;49.490;10.908;2022-07-29T01:32:12;24.10;50.00
9446;DHT22;4761;49.490;10.908;2022-07-29T01:37:39;24.10;50.00
9446;DHT22;4761;49.490;10.908;2022-07-29T01:40:24;24.10;50.00
9446;DHT22;4761;49.490;10.908;2022-07-29T01:42:56;24.10;50.60
9446;DHT22;4761;49.490;10.908;2022-07-29T01:45:45;24.10;50.00
9446;DHT22;4761;49.490;10.908;2022-07-29T01:48:16;24.10;50.10
9446;DHT22;4761;49.490;10.908;2022-07-29T01:50:49;24.10;50.20
9446;DHT22;4761;49.490;10.908;2022-07-29T01:53:23;24.10;50.20
9446;DHT22;4761;49.490;10.908;2022-07-29T01:55:51;24.10;50.10
9446;DHT22;4761;49.490;10.908;2022-07-29T01:58:19;24.10;50.20
9446;DHT22;4761;49.490;10.908;2022-07-29T02:00:46;24.10;50.40
9446;DHT22;4761;49.490;10.908;2022-07-29T02:03:14;24.10;50.30
9446;DHT22;4761;49.490;10.908;2022-07-29T02:05:44;24.10;50.30
9446;DHT22;4761;49.490;10.908;2022-07-29T02:08:11;24.10;50.30
9446;DHT22;4761;49.490;10.908;2022-07-29T02:10:40;24.10;50.30
9446;DHT22;4761;49.490;10.908;2022-07-29T02:13:06;24.10;50.20
9446;DHT22;4761;49.490;10.908;2022-07-29T02:15:34;24.10;50.20
9446;DHT22;4761;49.490;10.908;2022-07-29T02:18:16;24.10;50.30
9446;DHT22;4761;49.490;10.908;2022-07-29T02:20:48;24.10;50.20
9446;DHT22;4761;49.490;10.908;2022-07-29T02:23:18;24.10;50.20
9446;DHT22;4761;49.490;10.908;2022-07-29T02:25:45;24.10;50.20
9446;DHT22;4761;49.490;10.908;2022-07-29T02:28:13;24.10;50.20
9446;DHT22;4761;49.490;10.908;2022-07-29T02:30:41;24.10;50.30
9446;DHT22;4761;49.490;10.908;2022-07-29T02:33:08;24.10;50.20
9446;DHT22;4761;49.490;10.908;2022-07-29T02:35:35;24.10;50.40
9446;DHT22;4761;49.490;10.908;2022-07-29T02:38:03;24.10;50.40
9446;DHT22;4761;49.490;10.908;2022-07-29T02:40:48;24.00;50.30
9446;DHT22;4761;49.490;10.908;2022-07-29T02:43:17;24.00;50.40
9446;DHT22;4761;49.490;10.908;2022-07-29T02:45:45;24.00;50.30
9446;DHT22;4761;49.490;10.908;2022-07-29T02:48:15;24.00;50.30
9446;DHT22;4761;49.490;10.908;2022-07-29T02:50:51;24.00;50.50
9446;DHT22;4761;49.490;10.908;2022-07-29T02:53:23;24.10;50.50
9446;DHT22;4761;49.490;10.908;2022-07-29T02:55:59;24.00;50.40
9446;DHT22;4761;49.490;10.908;2022-07-29T02:58:29;24.00;50.50
9446;DHT22;4761;49.490;10.908;2022-07-29T03:00:58;24.00;50.50
9446;DHT22;4761;49.490;10.908;2022-07-29T03:03:27;24.00;50.50
9446;DHT22;4761;49.490;10.908;2022-07-29T03:05:57;24.00;50.50
9446;DHT22;4761;49.490;10.908;2022-07-29T03:08:26;24.00;50.50
9446;DHT22;4761;49.490;10.908;2022-07-29T03:10:53;24.00;50.40
9446;DHT22;4761;49.490;10.908;2022-07-29T03:13:19;24.00;50.50
9446;DHT22;4761;49.490;10.908;2022-07-29T03:15:45;24.00;50.50
9446;DHT22;4761;49.490;10.908;2022-07-29T03:18:11;24.00;50.50
9446;DHT22;4761;49.490;10.908;2022-07-29T03:20:38;24.00;50.50
9446;DHT22;4761;49.490;10.908;2022-07-29T03:23:04;24.00;50.50
9446;DHT22;4761;49.490;10.908;2022-07-29T03:25:30;24.00;50.60
9446;DHT22;4761;49.490;10.908;2022-07-29T03:27:55;24.00;50.60
9446;DHT22;4761;49.490;10.908;2022-07-29T03:30:22;24.00;50.60
9446;DHT22;4761;49.490;10.908;2022-07-29T03:32:48;23.90;50.60
9446;DHT22;4761;49.490;10.908;2022-07-29T03:35:14;23.90;50.60
9446;DHT22;4761;49.490;10.908;2022-07-29T03:37:42;24.00;50.60
9446;DHT22;4761;49.490;10.908;2022-07-29T03:40:08;23.90;50.60
9446;DHT22;4761;49.490;10.908;2022-07-29T03:42:38;23.90;50.60
9446;DHT22;4761;49.490;10.908;2022-07-29T03:45:10;23.90;50.60
9446;DHT22;4761;49.490;10.908;2022-07-29T03:47:40;23.90;50.60
9446;DHT22;4761;49.490;10.908;2022-07-29T03:50:10;23.90;50.60
9446;DHT22;4761;49.490;10.908;2022-07-29T03:52:37;23.90;50.60
9446;DHT22;4761;49.490;10.908;2022-07-29T03:55:03;23.90;50.70
9446;DHT22;4761;49.490;10.908;2022-07-29T03:57:30;23.90;50.70
9446;DHT22;4761;49.490;10.908;2022-07-29T03:59:57;23.90;50.70
9446;DHT22;4761;49.490;10.908;2022-07-29T04:02:23;23.90;50.70
9446;DHT22;4761;49.490;10.908;2022-07-29T04:04:51;23.90;50.70
9446;DHT22;4761;49.490;10.908;2022-07-29T04:07:17;23.90;50.70
9446;DHT22;4761;49.490;10.908;2022-07-29T04:09:43;23.90;50.80
9446;DHT22;4761;49.490;10.908;2022-07-29T04:12:08;23.90;50.70
9446;DHT22;4761;49.490;10.908;2022-07-29T04:14:35;23.90;50.70
9446;DHT22;4761;49.490;10.908;2022-07-29T04:17:01;23.90;50.70
9446;DHT22;4761;49.490;10.908;2022-07-29T04:19:27;23.90;50.80
9446;DHT22;4761;49.490;10.908;2022-07-29T04:21:53;23.90;50.80
9446;DHT22;4761;49.490;10.908;2022-07-29T04:24:18;23.90;50.90
9446;DHT22;4761;49.490;10.908;2022-07-29T04:26:46;23.90;50.80
9446;DHT22;4761;49.490;10.908;2022-07-29T04:29:11;23.90;50.90
9446;DHT22;4761;49.490;10.908;2022-07-29T04:31:37;23.90;50.90
9446;DHT22;4761;49.490;10.908;2022-07-29T04:34:03;23.80;50.80
9446;DHT22;4761;49.490;10.908;2022-07-29T04:36:28;23.80;50.80
9446;DHT22;4761;49.490;10.908;2022-07-29T04:38:54;23.90;50.90
9446;DHT22;4761;49.490;10.908;2022-07-29T04:41:20;23.90;50.90
9446;DHT22;4761;49.490;10.908;2022-07-29T04:43:45;23.80;50.90
9446;DHT22;4761;49.490;10.908;2022-07-29T04:46:11;23.80;50.90
9446;DHT22;4761;49.490;10.908;2022-07-29T04:48:36;23.90;51.00
9446;DHT22;4761;49.490;10.908;2022-07-29T04:51:02;23.80;50.90
9446;DHT22;4761;49.490;10.908;2022-07-29T04:53:28;23.80;50.90
9446;DHT22;4761;49.490;10.908;2022-07-29T04:55:53;23.80;50.90
9446;DHT22;4761;49.490;10.908;2022-07-29T04:58:19;23.80;50.90
9446;DHT22;4761;49.490;10.908;2022-07-29T05:00:44;23.80;50.90
9446;DHT22;4761;49.490;10.908;2022-07-29T05:03:10;23.80;50.90
9446;DHT22;4761;49.490;10.908;2022-07-29T05:05:36;23.80;50.80
9446;DHT22;4761;49.490;10.908;2022-07-29T05:08:01;23.80;50.80
9446;DHT22;4761;49.490;10.908;2022-07-29T05:10:27;23.80;50.90
9446;DHT22;4761;49.490;10.908;2022-07-29T05:12:54;23.80;50.90
9446;DHT22;4761;49.490;10.908;2022-07-29T05:15:19;23.80;50.80
9446;DHT22;4761;49.490;10.908;2022-07-29T05:17:45;23.80;50.90
9446;DHT22;4761;49.490;10.908;2022-07-29T05:20:10;23.80;50.90
9446;DHT22;4761;49.490;10.908;2022-07-29T05:22:36;23.80;50.90
9446;DHT22;4761;49.490;10.908;2022-07-29T05:25:02;23.80;50.80
9446;DHT22;4761;49.490;10.908;2022-07-29T05:27:28;23.80;50.80
9446;DHT22;4761;49.490;10.908;2022-07-29T05:29:53;23.80;50.90
9446;DHT22;4761;49.490;10.908;2022-07-29T05:32:19;23.80;50.80
9446;DHT22;4761;49.490;10.908;2022-07-29T05:34:44;23.80;50.80
9446;DHT22;4761;49.490;10.908;2022-07-29T05:37:10;23.80;50.80
9446;DHT22;4761;49.490;10.908;2022-07-29T05:39:36;23.80;50.80
9446;DHT22;4761;49.490;10.908;2022-07-29T05:42:01;23.90;50.70
9446;DHT22;4761;49.490;10.908;2022-07-29T05:44:27;23.90;50.50
9446;DHT22;4761;49.490;10.908;2022-07-29T05:46:52;24.00;50.40
9446;DHT22;4761;49.490;10.908;2022-07-29T05:49:18;24.10;50.40
9446;DHT22;4761;49.490;10.908;2022-07-29T05:51:44;24.10;50.90
9446;DHT22;4761;49.490;10.908;2022-07-29T05:54:09;24.10;50.10
9446;DHT22;4761;49.490;10.908;2022-07-29T05:56:36;24.20;50.00
9446;DHT22;4761;49.490;10.908;2022-07-29T05:59:02;24.20;49.90
9446;DHT22;4761;49.490;10.908;2022-07-29T06:01:28;24.20;49.90
9446;DHT22;4761;49.490;10.908;2022-07-29T06:03:53;24.20;49.80
9446;DHT22;4761;49.490;10.908;2022-07-29T06:06:19;24.30;49.80
9446;DHT22;4761;49.490;10.908;2022-07-29T06:08:45;24.30;49.80
9446;DHT22;4761;49.490;10.908;2022-07-29T06:11:10;24.30;49.70
9446;DHT22;4761;49.490;10.908;2022-07-29T06:13:36;24.40;49.70
9446;DHT22;4761;49.490;10.908;2022-07-29T06:16:01;24.30;49.60
9446;DHT22;4761;49.490;10.908;2022-07-29T06:18:27;24.40;49.40
9446;DHT22;4761;49.490;10.908;2022-07-29T06:20:53;24.40;49.40
9446;DHT22;4761;49.490;10.908;2022-07-29T06:23:19;24.40;49.40
9446;DHT22;4761;49.490;10.908;2022-07-29T06:25:45;24.40;49.20
9446;DHT22;4761;49.490;10.908;2022-07-29T06:28:11;24.40;49.20
9446;DHT22;4761;49.490;10.908;2022-07-29T06:30:38;24.40;49.10
9446;DHT22;4761;49.490;10.908;2022-07-29T06:33:04;24.50;49.10
9446;DHT22;4761;49.490;10.908;2022-07-29T06:35:30;24.50;49.20
9446;DHT22;4761;49.490;10.908;2022-07-29T06:37:55;24.50;48.90
9446;DHT22;4761;49.490;10.908;2022-07-29T06:40:21;24.50;49.10
9446;DHT22;4761;49.490;10.908;2022-07-29T06:43:05;24.50;49.10
9446;DHT22;4761;49.490;10.908;2022-07-29T06:45:34;24.60;49.20
9446;DHT22;4761;49.490;10.908;2022-07-29T06:47:59;24.50;49.20
9446;DHT22;4761;49.490;10.908;2022-07-29T06:50:25;24.60;49.10
9446;DHT22;4761;49.490;10.908;2022-07-29T06:52:50;24.60;49.00
9446;DHT22;4761;49.490;10.908;2022-07-29T06:55:16;24.60;49.00
9446;DHT22;4761;49.490;10.908;2022-07-29T06:57:44;24.60;49.20
9446;DHT22;4761;49.490;10.908;2022-07-29T07:00:10;24.50;49.70
9446;DHT22;4761;49.490;10.908;2022-07-29T07:02:36;24.40;50.50
9446;DHT22;4761;49.490;10.908;2022-07-29T07:05:02;24.40;50.40
9446;DHT22;4761;49.490;10.908;2022-07-29T07:07:27;24.30;50.40
9446;DHT22;4761;49.490;10.908;2022-07-29T07:09:53;24.30;50.40
9446;DHT22;4761;49.490;10.908;2022-07-29T07:12:18;24.30;50.40
9446;DHT22;4761;49.490;10.908;2022-07-29T07:14:44;24.20;50.40
9446;DHT22;4761;49.490;10.908;2022-07-29T07:17:10;24.30;50.70
9446;DHT22;4761;49.490;10.908;2022-07-29T07:19:35;24.30;50.70
9446;DHT22;4761;49.490;10.908;2022-07-29T07:22:01;24.20;50.80
9446;DHT22;4761;49.490;10.908;2022-07-29T07:24:26;24.20;51.00
9446;DHT22;4761;49.490;10.908;2022-07-29T07:26:52;24.20;51.00
9446;DHT22;4761;49.490;10.908;2022-07-29T07:29:17;24.20;51.60
9446;DHT22;4761;49.490;10.908;2022-07-29T07:31:43;24.20;50.80
9446;DHT22;4761;49.490;10.908;2022-07-29T07:34:08;24.20;50.90
9446;DHT22;4761;49.490;10.908;2022-07-29T07:36:34;24.30;51.20
9446;DHT22;4761;49.490;10.908;2022-07-29T07:39:00;24.30;51.00
9446;DHT22;4761;49.490;10.908;2022-07-29T07:41:26;24.30;50.90
9446;DHT22;4761;49.490;10.908;2022-07-29T07:43:51;24.30;50.80
9446;DHT22;4761;49.490;10.908;2022-07-29T07:46:17;24.30;50.70
9446;DHT22;4761;49.490;10.908;2022-07-29T07:48:42;24.40;50.70
9446;DHT22;4761;49.490;10.908;2022-07-29T07:51:08;24.40;50.70
9446;DHT22;4761;49.490;10.908;2022-07-29T07:53:34;24.40;50.60
9446;DHT22;4761;49.490;10.908;2022-07-29T07:55:59;24.40;50.60
9446;DHT22;4761;49.490;10.908;2022-07-29T07:58:25;24.40;50.70
9446;DHT22;4761;49.490;10.908;2022-07-29T08:00:50;24.40;50.70
9446;DHT22;4761;49.490;10.908;2022-07-29T08:03:16;24.40;50.70
9446;DHT22;4761;49.490;10.908;2022-07-29T08:05:42;24.40;50.70
9446;DHT22;4761;49.490;10.908;2022-07-29T08:08:07;24.40;50.70
9446;DHT22;4761;49.490;10.908;2022-07-29T08:10:33;24.40;50.70
9446;DHT22;4761;49.490;10.908;2022-07-29T08:13:18;24.40;50.70
9446;DHT22;4761;49.490;10.908;2022-07-29T08:15:44;24.40;50.70
9446;DHT22;4761;49.490;10.908;2022-07-29T08:18:11;24.40;50.70
9446;DHT22;4761;49.490;10.908;2022-07-29T08:20:37;24.40;50.70
9446;DHT22;4761;49.490;10.908;2022-07-29T08:23:04;24.40;50.70
9446;DHT22;4761;49.490;10.908;2022-07-29T08:25:40;24.40;50.70
9446;DHT22;4761;49.490;10.908;2022-07-29T08:28:06;24.40;50.70
9446;DHT22;4761;49.490;10.908;2022-07-29T08:30:32;24.40;50.60
9446;DHT22;4761;49.490;10.908;2022-07-29T08:32:58;24.40;50.60
9446;DHT22;4761;49.490;10.908;2022-07-29T08:35:24;24.40;50.60
9446;DHT22;4761;49.490;10.908;2022-07-29T08:37:51;24.40;50.60
9446;DHT22;4761;49.490;10.908;2022-07-29T08:40:16;24.40;50.50
9446;DHT22;4761;49.490;10.908;2022-07-29T08:42:42;24.40;50.50
9446;DHT22;4761;49.490;10.908;2022-07-29T08:45:08;24.40;50.50
9446;DHT22;4761;49.490;10.908;2022-07-29T08:47:34;24.40;50.50
9446;DHT22;4761;49.490;10.908;2022-07-29T08:50:04;24.40;50.50
9446;DHT22;4761;49.490;10.908;2022-07-29T08:52:30;24.40;50.40
9446;DHT22;4761;49.490;10.908;2022-07-29T08:54:57;24.40;50.40
9446;DHT22;4761;49.490;10.908;2022-07-29T08:57:24;24.40;50.40
9446;DHT22;4761;49.490;10.908;2022-07-29T08:59:52;24.40;50.40
9446;DHT22;4761;49.490;10.908;2022-07-29T09:02:22;24.50;50.50
9446;DHT22;4761;49.490;10.908;2022-07-29T09:04:48;24.50;50.40
9446;DHT22;4761;49.490;10.908;2022-07-29T09:07:16;24.50;50.50
9446;DHT22;4761;49.490;10.908;2022-07-29T09:09:42;24.50;50.40
9446;DHT22;4761;49.490;10.908;2022-07-29T09:12:09;24.50;50.30
9446;DHT22;4761;49.490;10.908;2022-07-29T09:14:37;24.40;50.30
9446;DHT22;4761;49.490;10.908;2022-07-29T09:17:03;24.50;50.40
9446;DHT22;4761;49.490;10.908;2022-07-29T09:19:34;24.50;50.30
9446;DHT22;4761;49.490;10.908;2022-07-29T09:22:02;24.50;50.30
9446;DHT22;4761;49.490;10.908;2022-07-29T09:27:00;24.50;50.30
9446;DHT22;4761;49.490;10.908;2022-07-29T09:29:27;24.50;50.30
9446;DHT22;4761;49.490;10.908;2022-07-29T09:31:54;24.50;50.30
9446;DHT22;4761;49.490;10.908;2022-07-29T09:34:27;24.50;50.30
9446;DHT22;4761;49.490;10.908;2022-07-29T09:36:54;24.50;50.30
9446;DHT22;4761;49.490;10.908;2022-07-29T09:41:55;24.50;50.30
9446;DHT22;4761;49.490;10.908;2022-07-29T09:44:22;24.40;50.30
9446;DHT22;4761;49.490;10.908;2022-07-29T09:47:02;24.50;50.30
9446;DHT22;4761;49.490;10.908;2022-07-29T09:49:32;24.50;50.30
9446;DHT22;4761;49.490;10.908;2022-07-29T09:52:09;24.50;50.40
9446;DHT22;4761;49.490;10.908;2022-07-29T09:54:36;24.50;50.50
9446;DHT22;4761;49.490;10.908;2022-07-29T09:57:04;24.50;50.50
9446;DHT22;4761;49.490;10.908;2022-07-29T09:59:30;24.50;50.50
9446;DHT22;4761;49.490;10.908;2022-07-29T10:01:56;24.50;50.50
9446;DHT22;4761;49.490;10.908;2022-07-29T10:04:21;24.50;49.80
9446;DHT22;4761;49.490;10.908;2022-07-29T10:07:01;24.40;49.50
9446;DHT22;4761;49.490;10.908;2022-07-29T10:09:27;24.50;49.10
9446;DHT22;4761;49.490;10.908;2022-07-29T10:12:10;24.50;49.20
9446;DHT22;4761;49.490;10.908;2022-07-29T10:14:39;24.60;48.60
9446;DHT22;4761;49.490;10.908;2022-07-29T10:17:06;24.60;49.30
9446;DHT22;4761;49.490;10.908;2022-07-29T10:19:33;24.60;48.70
9446;DHT22;4761;49.490;10.908;2022-07-29T10:22:01;24.60;48.40
9446;DHT22;4761;49.490;10.908;2022-07-29T10:24:28;24.70;48.50
9446;DHT22;4761;49.490;10.908;2022-07-29T10:26:59;24.70;48.60
9446;DHT22;4761;49.490;10.908;2022-07-29T10:29:25;24.70;48.60
9446;DHT22;4761;49.490;10.908;2022-07-29T10:37:44;24.80;48.30
9446;DHT22;4761;49.490;10.908;2022-07-29T10:43:36;24.80;48.00
9446;DHT22;4761;49.490;10.908;2022-07-29T10:46:03;24.80;48.30
9446;DHT22;4761;49.490;10.908;2022-07-29T10:48:29;24.80;48.70
9446;DHT22;4761;49.490;10.908;2022-07-29T10:51:02;24.80;48.60
9446;DHT22;4761;49.490;10.908;2022-07-29T10:53:50;24.90;48.50
9446;DHT22;4761;49.490;10.908;2022-07-29T10:56:32;25.00;48.40
9446;DHT22;4761;49.490;10.908;2022-07-29T11:01:45;25.00;48.50
9446;DHT22;4761;49.490;10.908;2022-07-29T11:04:11;25.00;48.60
9446;DHT22;4761;49.490;10.908;2022-07-29T11:09:30;25.10;48.30
9446;DHT22;4761;49.490;10.908;2022-07-29T11:11:57;25.00;48.60
9446;DHT22;4761;49.490;10.908;2022-07-29T11:17:20;25.10;48.40
9446;DHT22;4761;49.490;10.908;2022-07-29T11:19:45;25.10;48.80
9446;DHT22;4761;49.490;10.908;2022-07-29T11:22:12;25.10;48.80
9446;DHT22;4761;49.490;10.908;2022-07-29T11:25:25;25.10;48.80
9446;DHT22;4761;49.490;10.908;2022-07-29T11:28:09;25.10;48.50
9446;DHT22;4761;49.490;10.908;2022-07-29T11:30:54;25.10;48.50
9446;DHT22;4761;49.490;10.908;2022-07-29T11:33:30;25.20;48.50
9446;DHT22;4761;49.490;10.908;2022-07-29T11:36:10;25.20;48.50
9446;DHT22;4761;49.490;10.908;2022-07-29T11:38:36;25.10;48.60
9446;DHT22;4761;49.490;10.908;2022-07-29T11:44:01;25.20;48.40
9446;DHT22;4761;49.490;10.908;2022-07-29T11:46:46;25.20;48.60
9446;DHT22;4761;49.490;10.908;2022-07-29T11:49:22;25.20;48.50
9446;DHT22;4761;49.490;10.908;2022-07-29T11:51:52;25.20;48.80
9446;DHT22;4761;49.490;10.908;2022-07-29T11:54:26;25.20;48.60
9446;DHT22;4761;49.490;10.908;2022-07-29T11:56:52;25.20;48.60
9446;DHT22;4761;49.490;10.908;2022-07-29T11:59:19;25.20;48.70
9446;DHT22;4761;49.490;10.908;2022-07-29T12:02:00;25.10;48.50
9446;DHT22;4761;49.490;10.908;2022-07-29T12:04:26;25.10;48.30
9446;DHT22;4761;49.490;10.908;2022-07-29T12:06:54;25.10;48.70
9446;DHT22;4761;49.490;10.908;2022-07-29T12:09:21;25.10;48.80
9446;DHT22;4761;49.490;10.908;2022-07-29T12:11:47;25.10;48.60
9446;DHT22;4761;49.490;10.908;2022-07-29T12:14:29;25.20;48.70
9446;DHT22;4761;49.490;10.908;2022-07-29T12:16:55;25.20;48.40
9446;DHT22;4761;49.490;10.908;2022-07-29T12:19:20;25.20;48.80
9446;DHT22;4761;49.490;10.908;2022-07-29T12:21:52;25.20;48.70
9446;DHT22;4761;49.490;10.908;2022-07-29T12:24:18;25.20;48.80
9446;DHT22;4761;49.490;10.908;2022-07-29T12:29:16;25.20;48.80
9446;DHT22;4761;49.490;10.908;2022-07-29T12:31:43;25.20;49.00
9446;DHT22;4761;49.490;10.908;2022-07-29T12:34:13;25.20;48.90
9446;DHT22;4761;49.490;10.908;2022-07-29T12:36:41;25.20;48.90
9446;DHT22;4761;49.490;10.908;2022-07-29T12:39:08;25.20;48.80
9446;DHT22;4761;49.490;10.908;2022-07-29T12:41:34;25.20;48.80
9446;DHT22;4761;49.490;10.908;2022-07-29T12:44:00;25.10;48.80
9446;DHT22;4761;49.490;10.908;2022-07-29T12:46:26;25.20;49.20
9446;DHT22;4761;49.490;10.908;2022-07-29T12:48:53;25.20;49.30
9446;DHT22;4761;49.490;10.908;2022-07-29T12:51:32;25.20;49.20
9446;DHT22;4761;49.490;10.908;2022-07-29T12:54:10;25.20;49.00
9446;DHT22;4761;49.490;10.908;2022-07-29T12:56:43;25.20;49.10
9446;DHT22;4761;49.490;10.908;2022-07-29T12:59:16;25.20;49.40
9446;DHT22;4761;49.490;10.908;2022-07-29T13:01:43;25.20;49.80
9446;DHT22;4761;49.490;10.908;2022-07-29T13:04:09;25.20;50.10
9446;DHT22;4761;49.490;10.908;2022-07-29T13:06:43;25.20;49.90
9446;DHT22;4761;49.490;10.908;2022-07-29T13:09:10;25.20;49.50
9446;DHT22;4761;49.490;10.908;2022-07-29T13:11:38;25.30;49.80
9446;DHT22;4761;49.490;10.908;2022-07-29T13:14:06;25.30;49.90
9446;DHT22;4761;49.490;10.908;2022-07-29T13:16:32;25.40;50.10
9446;DHT22;4761;49.490;10.908;2022-07-29T13:19:09;25.40;50.10
9446;DHT22;4761;49.490;10.908;2022-07-29T13:21:35;25.50;49.70
9446;DHT22;4761;49.490;10.908;2022-07-29T13:24:02;25.50;50.10
9446;DHT22;4761;49.490;10.908;2022-07-29T13:26:27;25.40;49.80
9446;DHT22;4761;49.490;10.908;2022-07-29T13:28:54;25.50;49.70
9446;DHT22;4761;49.490;10.908;2022-07-29T13:31:20;25.50;49.50
9446;DHT22;4761;49.490;10.908;2022-07-29T13:33:45;25.50;49.30
9446;DHT22;4761;49.490;10.908;2022-07-29T13:36:11;25.60;49.20
9446;DHT22;4761;49.490;10.908;2022-07-29T13:38:36;25.60;49.20
9446;DHT22;4761;49.490;10.908;2022-07-29T13:41:02;25.70;49.00
9446;DHT22;4761;49.490;10.908;2022-07-29T13:43:27;25.70;49.10
9446;DHT22;4761;49.490;10.908;2022-07-29T13:45:53;25.80;48.60
9446;DHT22;4761;49.490;10.908;2022-07-29T13:48:19;25.80;49.00
9446;DHT22;4761;49.490;10.908;2022-07-29T13:50:44;25.80;49.10
9446;DHT22;4761;49.490;10.908;2022-07-29T13:53:10;25.80;48.70
9446;DHT22;4761;49.490;10.908;2022-07-29T13:55:36;25.80;48.60
9446;DHT22;4761;49.490;10.908;2022-07-29T13:58:02;25.90;48.50
9446;DHT22;4761;49.490;10.908;2022-07-29T14:00:29;25.90;48.60
9446;DHT22;4761;49.490;10.908;2022-07-29T14:02:54;25.90;48.50
9446;DHT22;4761;49.490;10.908;2022-07-29T14:05:20;25.90;48.50
9446;DHT22;4761;49.490;10.908;2022-07-29T14:07:45;25.90;48.30
9446;DHT22;4761;49.490;10.908;2022-07-29T14:10:11;25.90;47.80
9446;DHT22;4761;49.490;10.908;2022-07-29T14:12:37;26.00;47.90
9446;DHT22;4761;49.490;10.908;2022-07-29T14:15:03;26.00;48.00
9446;DHT22;4761;49.490;10.908;2022-07-29T14:17:28;26.00;47.70
9446;DHT22;4761;49.490;10.908;2022-07-29T14:19:54;26.00;47.30
9446;DHT22;4761;49.490;10.908;2022-07-29T14:22:19;26.00;48.10
9446;DHT22;4761;49.490;10.908;2022-07-29T14:24:45;26.00;47.30
9446;DHT22;4761;49.490;10.908;2022-07-29T14:27:11;26.10;47.10
9446;DHT22;4761;49.490;10.908;2022-07-29T14:29:37;26.10;47.00
9446;DHT22;4761;49.490;10.908;2022-07-29T14:32:03;26.10;47.10
9446;DHT22;4761;49.490;10.908;2022-07-29T14:34:29;26.10;46.50
9446;DHT22;4761;49.490;10.908;2022-07-29T14:36:54;26.00;46.50
9446;DHT22;4761;49.490;10.908;2022-07-29T14:39:21;25.90;46.70
9446;DHT22;4761;49.490;10.908;2022-07-29T14:41:48;25.80;46.40
9446;DHT22;4761;49.490;10.908;2022-07-29T14:44:14;25.80;46.20
9446;DHT22;4761;49.490;10.908;2022-07-29T14:46:39;25.70;46.50
9446;DHT22;4761;49.490;10.908;2022-07-29T14:49:05;25.60;46.10
9446;DHT22;4761;49.490;10.908;2022-07-29T14:51:31;25.60;46.50
9446;DHT22;4761;49.490;10.908;2022-07-29T14:53:57;25.60;46.40
9446;DHT22;4761;49.490;10.908;2022-07-29T14:56:23;25.60;46.50
9446;DHT22;4761;49.490;10.908;2022-07-29T14:58:48;25.60;46.30
9446;DHT22;4761;49.490;10.908;2022-07-29T15:01:14;25.60;46.30
9446;DHT22;4761;49.490;10.908;2022-07-29T15:03:39;25.60;46.20
9446;DHT22;4761;49.490;10.908;2022-07-29T15:06:05;25.60;46.20
9446;DHT22;4761;49.490;10.908;2022-07-29T15:08:30;25.60;46.30
9446;DHT22;4761;49.490;10.908;2022-07-29T15:10:56;25.50;46.30
9446;DHT22;4761;49.490;10.908;2022-07-29T15:13:25;25.50;46.30
9446;DHT22;4761;49.490;10.908;2022-07-29T15:15:50;25.50;46.40
9446;DHT22;4761;49.490;10.908;2022-07-29T15:18:17;25.40;46.60
9446;DHT22;4761;49.490;10.908;2022-07-29T15:20:42;25.40;46.70
9446;DHT22;4761;49.490;10.908;2022-07-29T15:23:10;25.40;46.90
9446;DHT22;4761;49.490;10.908;2022-07-29T15:25:38;25.50;47.10
9446;DHT22;4761;49.490;10.908;2022-07-29T15:28:03;25.50;47.20
9446;DHT22;4761;49.490;10.908;2022-07-29T15:30:32;25.50;47.50
9446;DHT22;4761;49.490;10.908;2022-07-29T15:32:59;25.50;47.70
9446;DHT22;4761;49.490;10.908;2022-07-29T15:35:24;25.50;47.90
9446;DHT22;4761;49.490;10.908;2022-07-29T15:37:50;25.50;48.20
9446;DHT22;4761;49.490;10.908;2022-07-29T15:40:15;25.50;48.30
9446;DHT22;4761;49.490;10.908;2022-07-29T15:42:41;25.50;48.90
9446;DHT22;4761;49.490;10.908;2022-07-29T15:45:07;25.50;49.40
9446;DHT22;4761;49.490;10.908;2022-07-29T15:47:35;25.50;50.10
9446;DHT22;4761;49.490;10.908;2022-07-29T15:50:00;25.50;50.70
9446;DHT22;4761;49.490;10.908;2022-07-29T15:52:26;25.50;51.20
9446;DHT22;4761;49.490;10.908;2022-07-29T15:54:53;25.50;51.80
9446;DHT22;4761;49.490;10.908;2022-07-29T15:57:19;25.50;52.40
9446;DHT22;4761;49.490;10.908;2022-07-29T15:59:45;25.50;53.00
9446;DHT22;4761;49.490;10.908;2022-07-29T16:02:10;25.50;53.50
9446;DHT22;4761;49.490;10.908;2022-07-29T16:04:36;25.50;53.80
9446;DHT22;4761;49.490;10.908;2022-07-29T16:07:02;25.50;54.30
9446;DHT22;4761;49.490;10.908;2022-07-29T16:09:28;25.50;54.50
9446;DHT22;4761;49.490;10.908;2022-07-29T16:11:53;25.50;54.90
9446;DHT22;4761;49.490;10.908;2022-07-29T16:14:20;25.50;55.20
9446;DHT22;4761;49.490;10.908;2022-07-29T16:16:46;25.50;55.50
9446;DHT22;4761;49.490;10.908;2022-07-29T16:19:12;25.50;52.50
9446;DHT22;4761;49.490;10.908;2022-07-29T16:21:38;25.70;51.50
9446;DHT22;4761;49.490;10.908;2022-07-29T16:24:04;25.70;52.20